Time;durP1;ratioP1;P1;durP2;ratioP2;P2;SDS_P1;SDS_P2;PMS_P1;PMS_P2;Temp;Humidity;BMP_temperature;BMP_pressure;BME280_temperature;BME280_humidity;BME280_pressure;Samples;Min_cycle;Max_cycle;Signal;HPM_P1;HPM_P2
2023/10/10 00:02:18;;;;;;;4.80;2.80;;;14.00;99.90;;;;;;5096408;28;20162;-79
2023/10/10 00:04:47;;;;;;;5.57;3.50;;;14.00;99.90;;;;;;5097490;28;20166;-77
2023/10/10 00:07:15;;;;;;;2.97;2.70;;;14.10;99.90;;;;;;5093858;28;20178;-78
2023/10/10 00:09:45;;;;;;;6.53;2.97;;;14.10;99.90;;;;;;5099955;28;20206;-78
2023/10/10 00:12:18;;;;;;;4.67;3.10;;;14.10;99.90;;;;;;5098203;28;20633;-79
2023/10/10 00:14:50;;;;;;;3.47;3.17;;;14.20;99.90;;;;;;5096468;28;20249;-77
2023/10/10 00:17:16;;;;;;;3.27;2.90;;;14.20;99.90;;;;;;5096864;28;20602;-77
2023/10/10 00:19:45;;;;;;;4.07;2.90;;;14.20;99.90;;;;;;5096318;28;20230;-78
2023/10/10 00:22:11;;;;;;;6.37;2.80;;;14.20;99.90;;;;;;5096496;28;20172;-77
2023/10/10 00:24:38;;;;;;;8.33;3.00;;;14.20;99.90;;;;;;5096306;28;20209;-77
2023/10/10 00:27:15;;;;;;;4.30;3.00;;;14.20;99.90;;;;;;5078073;28;20183;-77
2023/10/10 00:29:44;;;;;;;6.43;3.00;;;14.30;99.90;;;;;;5095869;28;20194;-78
2023/10/10 00:32:18;;;;;;;3.63;3.33;;;14.20;99.90;;;;;;5095583;28;20179;-78
2023/10/10 00:34:48;;;;;;;3.67;2.77;;;14.20;99.90;;;;;;5077387;28;20264;-77
2023/10/10 00:37:25;;;;;;;6.00;3.30;;;14.30;99.90;;;;;;5096090;28;20152;-79
2023/10/10 00:39:54;;;;;;;3.33;2.70;;;14.30;99.90;;;;;;5095683;28;20551;-77
2023/10/10 00:42:28;;;;;;;3.27;2.97;;;14.20;99.90;;;;;;5095747;28;20246;-78
2023/10/10 00:45:04;;;;;;;4.20;3.40;;;14.20;99.90;;;;;;5095548;28;20623;-78
2023/10/10 00:47:38;;;;;;;6.23;3.17;;;14.10;99.90;;;;;;5095291;28;20622;-78
2023/10/10 00:50:08;;;;;;;4.03;3.23;;;14.20;99.90;;;;;;5095493;28;20839;-79
2023/10/10 00:52:38;;;;;;;3.00;2.73;;;14.30;99.90;;;;;;5096599;28;20181;-78
2023/10/10 00:55:04;;;;;;;6.37;3.30;;;14.30;99.90;;;;;;5095473;28;20165;-78
2023/10/10 00:57:37;;;;;;;3.43;3.13;;;14.30;99.90;;;;;;5076916;28;20174;-78
2023/10/10 01:00:08;;;;;;;4.63;3.10;;;14.30;99.90;;;;;;5099988;28;20168;-79
2023/10/10 01:02:36;;;;;;;6.20;3.40;;;14.30;99.90;;;;;;5096596;28;20190;-78
2023/10/10 01:05:12;;;;;;;5.73;3.30;;;14.40;99.90;;;;;;5095143;28;20577;-80
2023/10/10 01:07:47;;;;;;;3.50;2.93;;;14.40;99.90;;;;;;5094842;28;20163;-77
2023/10/10 01:10:16;;;;;;;3.80;2.87;;;14.30;99.90;;;;;;5094738;28;20196;-78
2023/10/10 01:12:44;;;;;;;3.37;2.80;;;14.40;99.90;;;;;;5095209;28;20227;-77
2023/10/10 01:15:15;;;;;;;3.90;2.63;;;14.40;99.90;;;;;;5095229;28;20183;-77
2023/10/10 01:17:43;;;;;;;6.07;3.20;;;14.40;99.90;;;;;;5100947;28;20157;-78
2023/10/10 01:20:19;;;;;;;5.33;2.90;;;14.40;99.90;;;;;;5094764;28;20225;-79
2023/10/10 01:22:48;;;;;;;5.17;2.97;;;14.40;99.90;;;;;;5096357;28;20155;-78
2023/10/10 01:25:41;;;;;;;3.97;2.93;;;14.40;99.90;;;;;;5097587;28;20628;-79
2023/10/10 01:31:04;;;;;;;4.83;3.00;;;14.60;99.90;;;;;;5096251;28;20684;-77
2023/10/10 01:33:41;;;;;;;3.40;2.80;;;14.50;99.90;;;;;;5094243;28;20213;-78
2023/10/10 01:36:29;;;;;;;9.30;3.20;;;14.60;99.90;;;;;;5094294;28;20154;-78
2023/10/10 01:39:06;;;;;;;6.53;3.10;;;14.50;99.90;;;;;;5105875;28;20311;-76
2023/10/10 01:41:48;;;;;;;3.80;2.70;;;14.50;99.90;;;;;;5102437;28;20156;-77
2023/10/10 01:44:23;;;;;;;4.70;3.00;;;14.40;99.90;;;;;;5094022;28;20166;-79
2023/10/10 01:46:53;;;;;;;4.53;2.87;;;14.50;99.90;;;;;;5093983;28;20175;-78
2023/10/10 01:49:25;;;;;;;4.30;2.90;;;14.40;99.90;;;;;;5094532;28;20210;-76
2023/10/10 01:51:55;;;;;;;2.80;2.60;;;14.40;99.90;;;;;;5098570;28;20611;-77
2023/10/10 01:54:23;;;;;;;5.03;3.00;;;14.40;99.90;;;;;;5094336;28;20269;-78
2023/10/10 01:56:51;;;;;;;3.90;2.97;;;14.30;99.90;;;;;;5094022;28;20180;-77
2023/10/10 01:59:24;;;;;;;3.40;2.93;;;14.30;99.90;;;;;;5093865;28;20652;-76
2023/10/10 02:01:52;;;;;;;4.13;2.87;;;14.20;99.90;;;;;;5093637;28;20162;-78
2023/10/10 02:04:27;;;;;;;3.80;2.67;;;14.30;99.90;;;;;;5093583;28;20167;-78
2023/10/10 02:06:57;;;;;;;3.07;2.87;;;14.30;99.90;;;;;;5093938;28;20151;-78
2023/10/10 02:11:53;;;;;;;4.23;2.77;;;14.30;99.90;;;;;;5104373;28;20230;-78
2023/10/10 02:14:24;;;;;;;6.10;3.00;;;14.30;99.90;;;;;;5106625;28;20191;-78
2023/10/10 02:16:53;;;;;;;2.87;2.30;;;14.30;99.90;;;;;;5101356;28;20161;-79
2023/10/10 02:19:27;;;;;;;3.17;2.60;;;14.30;99.90;;;;;;5103402;28;20252;-76
2023/10/10 02:22:03;;;;;;;2.57;2.40;;;14.30;99.90;;;;;;5094475;28;20165;-77
2023/10/10 02:26:56;;;;;;;5.17;2.60;;;14.20;99.90;;;;;;5093586;28;20246;-78
2023/10/10 02:32:06;;;;;;;2.63;2.43;;;14.10;99.90;;;;;;5104973;28;20173;-78
2023/10/10 02:34:34;;;;;;;3.33;3.03;;;14.00;99.90;;;;;;5098909;28;20656;-75
2023/10/10 02:37:41;;;;;;;3.73;2.90;;;13.90;99.90;;;;;;5096830;28;20569;-79
2023/10/10 02:40:15;;;;;;;5.07;2.43;;;14.00;99.90;;;;;;5094074;28;20519;-79
2023/10/10 02:43:10;;;;;;;6.47;2.90;;;14.00;99.90;;;;;;5099576;28;20135;-78
2023/10/10 02:45:36;;;;;;;7.50;3.90;;;13.90;99.90;;;;;;5116251;28;20162;-78
2023/10/10 02:48:07;;;;;;;4.87;3.10;;;13.70;99.90;;;;;;5096398;28;20167;-77
2023/10/10 02:50:39;;;;;;;5.60;3.23;;;13.70;99.90;;;;;;5101766;28;20378;-77
2023/10/10 02:53:08;;;;;;;5.23;3.70;;;13.70;99.90;;;;;;5101670;28;20158;-77
2023/10/10 02:55:41;;;;;;;5.80;3.57;;;13.70;99.90;;;;;;5095642;28;20304;-79
2023/10/10 02:58:20;;;;;;;5.10;3.30;;;13.80;99.90;;;;;;5093535;28;20170;-78
2023/10/10 03:00:50;;;;;;;5.50;3.77;;;13.70;99.90;;;;;;5093455;28;20158;-79
2023/10/10 03:03:19;;;;;;;3.70;3.20;;;13.70;99.90;;;;;;5094714;28;20151;-79
2023/10/10 03:05:54;;;;;;;6.13;3.50;;;13.70;99.90;;;;;;5100892;28;20220;-77
2023/10/10 03:08:34;;;;;;;7.97;3.73;;;13.60;99.90;;;;;;5109799;28;20162;-78
2023/10/10 03:11:02;;;;;;;4.33;3.47;;;13.60;99.90;;;;;;5097982;28;20618;-77
2023/10/10 03:13:35;;;;;;;8.10;3.90;;;13.60;99.90;;;;;;5104702;28;20178;-78
2023/10/10 03:29:20;;;;;;;4.87;3.47;;;13.40;99.90;;;;;;5034871;28;20311;-78
2023/10/10 03:31:49;;;;;;;5.63;3.60;;;13.40;99.90;;;;;;5035531;28;20178;-78
2023/10/10 03:37:05;;;;;;;4.40;3.83;;;13.40;99.90;;;;;;5035209;28;20199;-77
2023/10/10 05:23:49;;;;;;;7.60;4.30;;;12.70;99.90;;;;;;5095586;28;20232;-80
2023/10/10 05:26:18;;;;;;;8.10;3.67;;;12.80;99.90;;;;;;5111031;28;20204;-78
2023/10/10 05:28:45;;;;;;;4.50;3.53;;;12.80;99.90;;;;;;5109691;28;20641;-78
2023/10/10 05:31:11;;;;;;;5.07;3.87;;;12.90;99.90;;;;;;5095702;28;20212;-77
2023/10/10 05:33:38;;;;;;;5.43;3.90;;;12.90;99.90;;;;;;5095457;28;20279;-77
2023/10/10 05:36:06;;;;;;;5.73;3.30;;;12.90;99.90;;;;;;5095171;28;20706;-79
2023/10/10 05:38:39;;;;;;;7.30;3.77;;;13.80;99.90;;;;;;5095030;28;20166;-78
2023/10/10 05:41:06;;;;;;;6.00;3.80;;;13.00;99.90;;;;;;5089014;28;20262;-76
2023/10/10 05:43:35;;;;;;;8.90;3.83;;;13.00;99.90;;;;;;5094389;28;20220;-80
2023/10/10 05:46:04;;;;;;;7.73;3.93;;;12.90;99.90;;;;;;5094153;28;20194;-77
2023/10/10 05:48:35;;;;;;;5.37;3.53;;;12.90;99.90;;;;;;5092881;28;20170;-77
2023/10/10 05:51:03;;;;;;;6.63;3.97;;;13.00;99.90;;;;;;5093935;28;20151;-79
2023/10/10 05:53:33;;;;;;;5.87;4.00;;;13.00;99.90;;;;;;5095646;28;20183;-77
2023/10/10 05:56:01;;;;;;;5.33;3.90;;;13.10;99.90;;;;;;5081924;28;20198;-78
2023/10/10 05:58:27;;;;;;;9.17;4.27;;;13.10;99.90;;;;;;5094052;28;20177;-78
2023/10/10 06:00:54;;;;;;;5.17;3.90;;;13.20;99.90;;;;;;5092513;28;20243;-79
2023/10/10 06:03:21;;;;;;;10.20;4.60;;;13.30;99.90;;;;;;5095997;28;20174;-79
2023/10/10 06:05:49;;;;;;;12.90;6.50;;;13.30;99.90;;;;;;5112638;28;20224;-79
2023/10/10 06:08:19;;;;;;;5.73;3.70;;;13.40;99.90;;;;;;5094233;28;20170;-77
2023/10/10 06:10:48;;;;;;;7.77;4.00;;;13.40;99.90;;;;;;5093379;28;20586;-79
2023/10/10 06:13:13;;;;;;;5.17;3.90;;;13.50;99.90;;;;;;5093836;28;20634;-78
2023/10/10 06:15:43;;;;;;;12.90;5.70;;;13.60;99.90;;;;;;5094074;28;20182;-80
2023/10/10 06:18:11;;;;;;;8.47;4.20;;;13.60;99.90;;;;;;5093939;28;20263;-78
2023/10/10 06:20:42;;;;;;;7.40;4.10;;;13.60;99.90;;;;;;5110374;28;20167;-80
2023/10/10 06:23:48;;;;;;;7.00;3.80;;;13.60;99.90;;;;;;5096224;28;20291;-77
2023/10/10 06:27:13;;;;;;;6.40;4.30;;;13.70;99.90;;;;;;5061883;28;20645;-80
2023/10/10 06:33:59;;;;;;;6.77;4.23;;;14.00;99.90;;;;;;5061537;28;20250;-79
2023/10/10 06:37:27;;;;;;;10.13;4.70;;;14.00;99.90;;;;;;4987116;28;20369;-78
2023/10/10 06:40:53;;;;;;;5.80;4.07;;;14.00;99.90;;;;;;5002300;28;20177;-78
2023/10/10 06:44:17;;;;;;;5.23;4.00;;;14.00;99.90;;;;;;4962531;29;20666;-76
2023/10/10 06:47:21;;;;;;;7.23;4.40;;;14.00;99.90;;;;;;4916249;29;20184;-78
2023/10/10 06:50:52;;;;;;;4.70;3.73;;;14.10;99.90;;;;;;4906848;29;20216;-79
2023/10/10 06:54:08;;;;;;;9.07;4.03;;;14.10;99.90;;;;;;4862237;29;20187;-78
2023/10/10 06:57:17;;;;;;;8.23;4.70;;;14.10;99.90;;;;;;4892599;29;20257;-77
2023/10/10 07:10:43;;;;;;;9.33;4.47;;;14.40;99.90;;;;;;4901951;29;20692;-79
2023/10/10 07:13:29;;;;;;;6.77;4.30;;;14.50;99.90;;;;;;4873499;29;20647;-78
2023/10/10 07:15:59;;;;;;;6.43;3.97;;;14.60;99.90;;;;;;4884692;29;20657;-79
2023/10/10 07:18:26;;;;;;;8.63;4.63;;;14.70;99.90;;;;;;4915209;29;20245;-77
2023/10/10 07:21:06;;;;;;;5.83;3.73;;;14.70;99.90;;;;;;4919550;29;20181;-79
2023/10/10 07:23:38;;;;;;;9.30;4.20;;;14.60;99.90;;;;;;4937148;28;20282;-79
2023/10/10 07:26:21;;;;;;;7.57;4.30;;;14.80;99.90;;;;;;4981689;28;20182;-78
2023/10/10 07:28:48;;;;;;;6.80;3.80;;;15.30;99.90;;;;;;4997659;28;20190;-78
2023/10/10 07:31:24;;;;;;;5.43;3.43;;;15.00;99.90;;;;;;4997742;28;20175;-79
2023/10/10 07:33:56;;;;;;;5.67;3.70;;;15.00;99.90;;;;;;4997698;28;20191;-76
2023/10/10 07:36:27;;;;;;;5.33;3.90;;;14.90;99.90;;;;;;5007279;28;20187;-78
2023/10/10 07:38:54;;;;;;;5.40;4.27;;;15.00;99.90;;;;;;5015522;28;20691;-78
2023/10/10 07:41:27;;;;;;;6.93;3.80;;;15.00;99.90;;;;;;5020328;28;20190;-79
2023/10/10 07:43:58;;;;;;;5.80;4.03;;;15.10;99.90;;;;;;5061812;28;20524;-79
2023/10/10 07:46:27;;;;;;;8.40;4.40;;;15.10;99.90;;;;;;5100428;28;20196;-78
2023/10/10 07:48:54;;;;;;;5.03;3.73;;;15.20;99.90;;;;;;5099009;28;20564;-77
2023/10/10 07:51:29;;;;;;;7.70;4.23;;;15.20;99.90;;;;;;5100133;28;20195;-77
2023/10/10 07:54:12;;;;;;;5.53;3.70;;;15.30;99.90;;;;;;5100258;28;20169;-77
2023/10/10 07:57:03;;;;;;;5.33;4.03;;;15.30;99.90;;;;;;5107733;28;20199;-79
2023/10/10 07:59:27;;;;;;;5.80;3.73;;;15.40;99.90;;;;;;5097495;28;20177;-78
2023/10/10 08:01:55;;;;;;;4.70;3.80;;;15.40;99.90;;;;;;5097823;28;20176;-78
2023/10/10 08:04:21;;;;;;;7.00;4.00;;;15.40;99.90;;;;;;5108434;28;20263;-79
2023/10/10 08:06:47;;;;;;;5.03;3.83;;;15.50;99.90;;;;;;5099812;28;20233;-80
2023/10/10 08:11:44;;;;;;;10.70;4.47;;;15.70;99.90;;;;;;5118217;28;20204;-77
2023/10/10 08:14:10;;;;;;;5.37;4.27;;;15.80;99.90;;;;;;5116562;28;20186;-75
2023/10/10 08:16:39;;;;;;;4.10;3.53;;;15.80;99.90;;;;;;5104251;28;20200;-77
2023/10/10 08:19:10;;;;;;;6.17;3.80;;;15.80;99.90;;;;;;5095917;28;20246;-79
2023/10/10 08:21:38;;;;;;;6.60;4.03;;;15.70;99.90;;;;;;5095985;28;20166;-78
2023/10/10 08:24:07;;;;;;;9.67;4.30;;;15.80;99.90;;;;;;5094719;28;20337;-78
2023/10/10 08:26:39;;;;;;;11.47;4.87;;;15.80;99.90;;;;;;5096538;28;20177;-77
2023/10/10 08:29:09;;;;;;;6.67;4.17;;;15.90;99.90;;;;;;5096019;28;20669;-79
2023/10/10 08:31:44;;;;;;;6.83;3.80;;;16.10;99.90;;;;;;5096106;28;20185;-78
2023/10/10 08:34:10;;;;;;;8.10;3.97;;;16.10;99.90;;;;;;5095917;28;20162;-77
2023/10/10 08:36:37;;;;;;;7.90;4.10;;;16.30;99.90;;;;;;5095840;28;20167;-77
2023/10/10 08:41:42;;;;;;;8.20;3.97;;;16.30;99.90;;;;;;5095448;28;20245;-78
2023/10/10 08:44:14;;;;;;;8.97;4.30;;;16.50;99.90;;;;;;5095122;28;20174;-79
2023/10/10 08:46:43;;;;;;;13.83;4.33;;;16.60;99.90;;;;;;5095845;28;20269;-77
2023/10/10 08:49:09;;;;;;;11.10;4.60;;;16.70;99.90;;;;;;5098998;28;20194;-78
2023/10/10 08:51:35;;;;;;;11.57;4.50;;;16.80;99.90;;;;;;5095220;28;20630;-76
2023/10/10 08:54:15;;;;;;;7.43;4.20;;;16.90;99.90;;;;;;5095404;28;20654;-77
2023/10/10 08:57:37;;;;;;;9.40;4.20;;;16.90;99.90;;;;;;5095324;28;20219;-78
2023/10/10 08:59:32;;;;;;;5.70;4.13;;;17.10;99.90;;;;;;5087369;28;20179;-78
2023/10/10 09:02:17;;;;;;;10.30;4.00;;;17.00;99.90;;;;;;5094680;28;20689;-77
2023/10/10 09:04:46;;;;;;;5.40;4.07;;;17.00;99.90;;;;;;5095260;28;20154;-78
2023/10/10 09:07:20;;;;;;;3.73;3.33;;;17.00;99.90;;;;;;5093720;28;20178;-77
2023/10/10 09:10:04;;;;;;;9.87;3.80;;;17.10;99.90;;;;;;5095150;28;20206;-77
2023/10/10 09:12:50;;;;;;;8.27;3.87;;;17.20;99.90;;;;;;5093410;28;20232;-77
2023/10/10 09:15:16;;;;;;;7.13;3.30;;;17.30;99.90;;;;;;5095122;28;20163;-76
2023/10/10 09:17:45;;;;;;;4.93;3.10;;;17.50;99.90;;;;;;5094557;28;20175;-78
2023/10/10 09:20:22;;;;;;;5.97;3.30;;;17.60;99.90;;;;;;5094345;28;20241;-78
2023/10/10 09:22:52;;;;;;;6.57;3.00;;;17.80;99.90;;;;;;5094218;28;20201;-76
2023/10/10 09:25:48;;;;;;;3.03;2.73;;;18.00;99.90;;;;;;5097544;28;20227;-79
2023/10/10 09:28:16;;;;;;;6.57;3.30;;;18.10;99.90;;;;;;5112933;28;20205;-78
2023/10/10 09:30:49;;;;;;;2.93;2.63;;;18.20;99.90;;;;;;5102155;28;20571;-78
2023/10/10 09:33:27;;;;;;;8.80;3.20;;;18.30;99.90;;;;;;5104417;28;20159;-78
2023/10/10 09:36:15;;;;;;;5.27;3.23;;;18.30;99.90;;;;;;5100361;28;20220;-77
2023/10/10 09:38:46;;;;;;;6.53;2.90;;;18.50;99.90;;;;;;5106981;28;20166;-79
2023/10/10 09:41:36;;;;;;;6.73;3.03;;;18.50;99.90;;;;;;5107139;28;20151;-77
2023/10/10 09:49:46;;;;;;;5.77;2.70;;;18.80;99.90;;;;;;5097349;28;20202;-78
2023/10/10 09:58:15;;;;;;;6.10;4.03;;;18.90;99.90;;;;;;5094863;28;20170;-76
2023/10/10 10:06:01;;;;;;;4.33;3.03;;;19.00;99.90;;;;;;5094507;28;20216;-78
2023/10/10 10:08:40;;;;;;;6.83;3.23;;;19.00;99.90;;;;;;5094361;28;20162;-76
2023/10/10 10:11:19;;;;;;;4.30;2.73;;;19.10;99.90;;;;;;5093162;28;20540;-77
2023/10/10 10:13:57;;;;;;;5.07;2.97;;;19.10;99.90;;;;;;5091282;28;20293;-75
2023/10/10 10:16:44;;;;;;;8.73;3.67;;;19.00;99.90;;;;;;5094062;28;20160;-78
2023/10/10 10:19:14;;;;;;;5.80;3.57;;;19.00;99.90;;;;;;5095600;28;20222;-79
2023/10/10 10:21:53;;;;;;;6.33;3.10;;;19.00;99.90;;;;;;5093304;28;20387;-78
2023/10/10 10:24:32;;;;;;;7.90;3.43;;;19.00;99.90;;;;;;5094042;28;20174;-79
2023/10/10 10:30:07;;;;;;;3.80;3.10;;;19.20;99.90;;;;;;5093532;28;20209;-78
2023/10/10 10:32:35;;;;;;;5.73;3.20;;;19.30;99.90;;;;;;5093456;28;20509;-77
2023/10/10 10:35:03;;;;;;;6.77;3.40;;;19.30;99.90;;;;;;5093267;28;20194;-78
2023/10/10 10:37:30;;;;;;;4.80;3.30;;;19.40;99.90;;;;;;5092762;28;20174;-78
2023/10/10 10:42:51;;;;;;;6.27;3.43;;;19.50;99.90;;;;;;5092751;28;20162;-77
2023/10/10 10:45:34;;;;;;;6.43;3.10;;;19.60;99.90;;;;;;5094548;28;20163;-78
2023/10/10 10:48:29;;;;;;;9.20;4.07;;;19.60;99.90;;;;;;5097590;28;20174;-78
2023/10/10 10:51:22;;;;;;;6.77;2.97;;;19.50;99.90;;;;;;5099664;28;20195;-78
2023/10/10 10:53:50;;;;;;;6.93;3.53;;;19.60;99.90;;;;;;5113876;28;20182;-77
2023/10/10 10:59:35;;;;;;;5.80;3.47;;;19.80;99.90;;;;;;5093820;28;20162;-77
2023/10/10 11:01:51;;;;;;;5.20;3.70;;;19.80;99.90;;;;;;5084680;28;20574;-76
2023/10/10 11:04:52;;;;;;;6.50;3.13;;;19.70;99.90;;;;;;5092849;28;20176;-78
2023/10/10 11:07:25;;;;;;;3.37;3.00;;;19.80;99.90;;;;;;5097029;28;20187;-76
2023/10/10 11:10:06;;;;;;;7.43;3.30;;;19.90;99.90;;;;;;5092391;28;20715;-76
2023/10/10 11:12:32;;;;;;;4.83;3.67;;;19.90;99.90;;;;;;5092397;28;20158;-79
2023/10/10 11:15:04;;;;;;;4.83;3.40;;;20.40;99.90;;;;;;5092584;28;20178;-77
2023/10/10 11:17:37;;;;;;;6.17;3.73;;;19.90;99.90;;;;;;5092731;28;20166;-77
2023/10/10 11:20:26;;;;;;;4.00;3.10;;;19.90;99.90;;;;;;5093725;28;20232;-77
2023/10/10 11:22:55;;;;;;;7.67;3.33;;;19.80;99.90;;;;;;5094217;28;20267;-78
2023/10/10 11:25:29;;;;;;;5.17;3.07;;;19.70;99.90;;;;;;5094489;28;20259;-77
2023/10/10 11:28:03;;;;;;;5.50;3.60;;;19.70;99.90;;;;;;5094117;28;20605;-76
2023/10/10 11:30:30;;;;;;;6.67;3.70;;;19.80;99.90;;;;;;5095661;28;20202;-77
2023/10/10 11:36:01;;;;;;;6.63;3.33;;;19.50;99.90;;;;;;5100939;28;20194;-78
2023/10/10 11:38:36;;;;;;;4.30;3.40;;;19.50;99.90;;;;;;5105038;28;20214;-76
2023/10/10 11:41:08;;;;;;;3.33;2.83;;;19.40;99.90;;;;;;5103743;28;20184;-77
2023/10/10 11:43:37;;;;;;;9.73;2.97;;;19.20;99.90;;;;;;5095731;28;20637;-76
2023/10/10 11:46:03;;;;;;;8.70;3.30;;;19.20;99.90;;;;;;5093015;28;20174;-77
2023/10/10 11:48:29;;;;;;;3.87;2.73;;;19.00;99.90;;;;;;5128996;27;20167;-76
2023/10/10 11:50:59;;;;;;;5.77;3.50;;;19.00;99.90;;;;;;5096056;28;20202;-78
2023/10/10 11:53:27;;;;;;;7.27;3.03;;;19.00;99.90;;;;;;5096788;28;20155;-76
2023/10/10 11:56:07;;;;;;;7.60;3.37;;;18.80;99.90;;;;;;5097406;28;20225;-78
2023/10/10 11:58:35;;;;;;;8.03;3.47;;;18.70;99.90;;;;;;5097760;28;20614;-77
2023/10/10 12:01:06;;;;;;;3.97;3.37;;;18.60;99.90;;;;;;5095760;28;20644;-76
2023/10/10 12:06:26;;;;;;;12.83;5.07;;;18.70;99.90;;;;;;5101100;28;20158;-76
2023/10/10 12:08:53;;;;;;;6.60;3.50;;;18.70;99.90;;;;;;5107701;28;20147;-78
2023/10/10 12:11:22;;;;;;;7.77;3.40;;;18.70;99.90;;;;;;5104465;28;20198;-77
2023/10/10 12:13:52;;;;;;;4.87;3.30;;;18.70;99.90;;;;;;5099796;28;20529;-77
2023/10/10 12:16:23;;;;;;;4.40;3.27;;;18.80;99.90;;;;;;5098655;28;20249;-78
2023/10/10 12:18:55;;;;;;;5.00;3.20;;;18.80;99.90;;;;;;5096706;28;20218;-77
2023/10/10 12:21:21;;;;;;;4.73;3.43;;;18.90;99.90;;;;;;5095730;28;20241;-77
2023/10/10 12:23:55;;;;;;;7.30;3.67;;;19.10;99.90;;;;;;5096704;28;20622;-78
2023/10/10 12:26:24;;;;;;;7.13;3.70;;;19.10;99.90;;;;;;5097327;28;20195;-77
2023/10/10 12:28:53;;;;;;;5.07;3.90;;;19.20;99.90;;;;;;5096184;28;20537;-78
2023/10/10 12:31:21;;;;;;;5.33;3.60;;;19.30;99.90;;;;;;5096386;28;20182;-78
2023/10/10 12:33:48;;;;;;;6.77;3.73;;;19.40;99.90;;;;;;5096055;28;20187;-79
2023/10/10 12:36:15;;;;;;;5.90;3.43;;;19.40;99.90;;;;;;5094814;28;20201;-77
2023/10/10 12:38:41;;;;;;;8.57;3.70;;;19.50;99.90;;;;;;5095332;28;20688;-78
2023/10/10 12:41:11;;;;;;;9.57;3.50;;;19.60;99.90;;;;;;5105216;28;20163;-79
2023/10/10 12:43:37;;;;;;;6.80;3.10;;;19.60;99.90;;;;;;5097514;28;20187;-78
2023/10/10 12:46:04;;;;;;;5.67;3.33;;;19.70;99.90;;;;;;5095662;28;20657;-77
2023/10/10 12:48:31;;;;;;;7.60;3.60;;;19.70;99.90;;;;;;5095686;28;20175;-76
2023/10/10 12:51:00;;;;;;;5.40;3.00;;;19.40;99.90;;;;;;5094561;28;20702;-78
2023/10/10 12:53:31;;;;;;;5.60;3.63;;;19.80;99.90;;;;;;5094863;28;20509;-79
2023/10/10 12:56:02;;;;;;;5.60;3.33;;;19.80;99.90;;;;;;5093932;28;20672;-79
2023/10/10 12:58:30;;;;;;;8.13;3.27;;;19.60;99.90;;;;;;5093917;28;20169;-77
2023/10/10 13:00:57;;;;;;;8.10;3.67;;;19.50;99.90;;;;;;5096094;28;20167;-77
2023/10/10 13:03:28;;;;;;;6.57;3.80;;;19.60;99.90;;;;;;5094804;28;20665;-77
2023/10/10 13:05:58;;;;;;;5.93;3.13;;;19.60;99.90;;;;;;5094357;28;20162;-77
2023/10/10 13:08:38;;;;;;;6.50;3.30;;;19.80;99.90;;;;;;5094369;28;20175;-77
2023/10/10 13:11:12;;;;;;;5.43;3.50;;;19.70;99.90;;;;;;5095916;28;20291;-77
2023/10/10 13:13:45;;;;;;;5.97;3.77;;;19.80;99.90;;;;;;5097268;28;20241;-76
2023/10/10 13:16:27;;;;;;;4.50;3.33;;;19.90;99.90;;;;;;5117519;28;20163;-79
2023/10/10 13:18:57;;;;;;;7.90;3.57;;;19.90;99.90;;;;;;5118224;28;20286;-77
2023/10/10 13:21:23;;;;;;;4.90;3.50;;;19.90;99.90;;;;;;5101529;28;20170;-76
2023/10/10 13:23:50;;;;;;;6.83;3.63;;;19.90;99.90;;;;;;5095136;28;20177;-78
2023/10/10 13:26:17;;;;;;;7.40;3.57;;;19.90;99.90;;;;;;5095875;28;20167;-78
2023/10/10 13:28:46;;;;;;;6.27;3.33;;;20.00;99.90;;;;;;5097287;28;20171;-78
2023/10/10 13:31:18;;;;;;;5.43;3.63;;;20.00;99.90;;;;;;5102526;28;20232;-77
2023/10/10 13:33:44;;;;;;;3.43;3.07;;;20.00;99.90;;;;;;5095924;28;20167;-79
2023/10/10 13:36:14;;;;;;;3.37;3.03;;;19.90;99.90;;;;;;5095287;28;20188;-79
2023/10/10 13:38:53;;;;;;;7.93;3.70;;;20.00;99.90;;;;;;5110080;28;20169;-77
2023/10/10 13:41:22;;;;;;;7.97;3.57;;;19.90;99.90;;;;;;5109837;28;20150;-78
2023/10/10 13:43:52;;;;;;;4.43;2.83;;;19.90;99.90;;;;;;5108261;28;20186;-78
2023/10/10 13:46:20;;;;;;;6.17;3.83;;;19.80;99.90;;;;;;5101592;28;20171;-77
2023/10/10 13:48:47;;;;;;;7.27;3.40;;;19.70;99.90;;;;;;5095286;28;20162;-77
2023/10/10 13:51:14;;;;;;;7.03;3.53;;;19.80;99.90;;;;;;5094318;28;20179;-77
2023/10/10 13:53:44;;;;;;;5.83;3.17;;;19.80;99.90;;;;;;5094880;28;20178;-77
2023/10/10 13:56:16;;;;;;;7.87;3.30;;;19.80;99.90;;;;;;5094431;28;20193;-77
2023/10/10 13:58:48;;;;;;;7.63;4.20;;;19.70;99.90;;;;;;5094974;28;20171;-77
2023/10/10 14:01:18;;;;;;;11.93;3.70;;;19.80;99.90;;;;;;5094468;28;20592;-77
2023/10/10 14:03:48;;;;;;;4.00;3.23;;;19.70;99.90;;;;;;5093678;28;20167;-76
2023/10/10 14:06:26;;;;;;;6.87;3.63;;;19.80;99.90;;;;;;5093307;28;20175;-78
2023/10/10 14:08:51;;;;;;;4.83;3.87;;;19.80;99.90;;;;;;5093047;28;20622;-78
2023/10/10 14:11:21;;;;;;;5.30;3.20;;;19.70;99.90;;;;;;5093131;28;20232;-76
2023/10/10 14:13:51;;;;;;;6.27;3.20;;;19.80;99.90;;;;;;5095104;28;20518;-77
2023/10/10 14:16:18;;;;;;;4.83;3.60;;;19.70;99.90;;;;;;5101818;28;20161;-78
2023/10/10 14:18:49;;;;;;;7.57;4.97;;;19.70;99.90;;;;;;5100971;28;20218;-79
2023/10/10 14:21:17;;;;;;;4.63;4.00;;;19.80;99.90;;;;;;5094817;28;20155;-79
2023/10/10 14:23:45;;;;;;;5.27;4.33;;;19.80;99.90;;;;;;5095310;28;20173;-77
2023/10/10 14:26:18;;;;;;;8.20;4.87;;;19.70;99.90;;;;;;5094367;28;20180;-77
2023/10/10 14:28:50;;;;;;;5.03;3.83;;;19.80;99.90;;;;;;5093049;28;20174;-77
2023/10/10 14:31:18;;;;;;;10.13;4.10;;;19.80;99.90;;;;;;5096742;28;20167;-77
2023/10/10 14:33:43;;;;;;;8.80;4.50;;;19.80;99.90;;;;;;5093093;28;20243;-75
2023/10/10 14:36:13;;;;;;;5.43;3.70;;;19.70;99.90;;;;;;5094115;28;20178;-78
2023/10/10 14:38:45;;;;;;;5.60;3.53;;;19.70;99.90;;;;;;5094387;28;20626;-78
2023/10/10 14:41:16;;;;;;;5.47;3.50;;;19.70;99.90;;;;;;5095035;28;20506;-78
2023/10/10 14:43:49;;;;;;;6.83;3.43;;;19.70;99.90;;;;;;5095149;28;20174;-79
2023/10/10 14:46:27;;;;;;;6.13;3.87;;;19.90;99.90;;;;;;5093782;28;20181;-79
2023/10/10 14:49:00;;;;;;;6.30;3.73;;;19.60;99.90;;;;;;5097618;28;20193;-77
2023/10/10 14:51:36;;;;;;;10.70;4.03;;;19.70;99.90;;;;;;5098384;28;20177;-78
2023/10/10 14:54:11;;;;;;;7.90;4.20;;;19.70;99.90;;;;;;5096310;28;20303;-78
2023/10/10 14:56:39;;;;;;;5.87;3.53;;;19.70;99.90;;;;;;5106313;28;20154;-79
2023/10/10 14:59:10;;;;;;;8.13;3.70;;;19.70;99.90;;;;;;5105384;28;20178;-77
2023/10/10 15:01:36;;;;;;;8.47;3.50;;;19.60;99.90;;;;;;5107359;28;20177;-78
2023/10/10 15:04:06;;;;;;;6.17;3.73;;;19.50;99.90;;;;;;5095539;28;20630;-78
2023/10/10 15:06:33;;;;;;;6.43;4.00;;;19.60;99.90;;;;;;5093912;28;20178;-77
2023/10/10 15:09:00;;;;;;;143.07;96.63;;;19.50;99.90;;;;;;5094510;28;20236;-77
2023/10/10 15:11:29;;;;;;;18.30;13.10;;;19.50;99.90;;;;;;5094207;28;20205;-78
2023/10/10 15:13:55;;;;;;;14.77;8.50;;;19.50;99.90;;;;;;5095694;28;20175;-77
2023/10/10 15:16:23;;;;;;;6.20;3.50;;;19.50;99.90;;;;;;5095109;28;20618;-77
2023/10/10 15:18:53;;;;;;;7.13;4.07;;;19.50;99.90;;;;;;5094228;28;20696;-78
2023/10/10 15:21:23;;;;;;;9.53;4.53;;;19.50;99.90;;;;;;5094778;28;20155;-79
2023/10/10 15:23:48;;;;;;;6.77;3.50;;;19.50;99.90;;;;;;5097998;28;20165;-78
2023/10/10 15:26:18;;;;;;;7.37;4.07;;;19.50;99.90;;;;;;5100739;28;20174;-78
2023/10/10 15:28:44;;;;;;;10.43;3.80;;;19.70;99.90;;;;;;5099139;28;20213;-78
2023/10/10 15:31:10;;;;;;;6.23;3.67;;;19.60;99.90;;;;;;5098407;28;20214;-78
2023/10/10 15:33:43;;;;;;;4.97;3.73;;;19.60;99.90;;;;;;5097440;28;20174;-77
2023/10/10 15:36:11;;;;;;;6.20;3.70;;;19.60;99.90;;;;;;5097162;28;20159;-78
2023/10/10 15:38:40;;;;;;;5.47;3.60;;;19.60;99.90;;;;;;5096191;28;20182;-78
2023/10/10 15:41:16;;;;;;;7.33;3.90;;;19.60;99.90;;;;;;5100780;28;20579;-81
2023/10/10 15:43:48;;;;;;;5.37;3.50;;;19.50;99.90;;;;;;5106785;28;20166;-76
2023/10/10 15:46:18;;;;;;;6.70;4.20;;;19.50;99.90;;;;;;5106140;28;20154;-79
2023/10/10 15:48:51;;;;;;;8.83;4.40;;;19.60;99.90;;;;;;5104853;28;20259;-78
2023/10/10 15:51:20;;;;;;;7.23;3.90;;;19.50;99.90;;;;;;5096562;28;20174;-78
2023/10/10 15:53:46;;;;;;;8.13;3.63;;;19.40;99.90;;;;;;5096300;28;20252;-77
2023/10/10 15:56:20;;;;;;;8.13;3.70;;;19.40;99.90;;;;;;5095703;28;20583;-79
2023/10/10 15:58:50;;;;;;;9.40;4.00;;;19.30;99.90;;;;;;5095946;28;20182;-77
2023/10/10 16:01:27;;;;;;;6.63;4.17;;;19.20;99.90;;;;;;5096002;28;20183;-79
2023/10/10 16:03:54;;;;;;;6.40;3.73;;;19.20;99.90;;;;;;5095817;28;20195;-78
2023/10/10 16:06:24;;;;;;;10.03;4.50;;;19.20;99.90;;;;;;5095956;28;20248;-78
2023/10/10 16:08:51;;;;;;;4.13;3.83;;;19.10;99.90;;;;;;5095952;28;20670;-79
2023/10/10 16:11:22;;;;;;;9.47;4.27;;;19.00;99.90;;;;;;5097775;28;20541;-76
2023/10/10 16:13:48;;;;;;;5.63;3.80;;;19.00;99.90;;;;;;5102794;28;20170;-78
2023/10/10 16:16:20;;;;;;;7.37;4.03;;;18.90;99.90;;;;;;5095939;28;20170;-77
2023/10/10 16:18:46;;;;;;;6.30;3.83;;;18.80;99.90;;;;;;5102370;28;20225;-77